sensor_id;sensor_type;location;lat;lon;timestamp;temperature;humidity
70534;SHT31;58088;51.186;17.130;2022-11-13T00:01:19;10.44;76.81
70534;SHT31;58088;51.186;17.130;2022-11-13T00:04:06;10.47;76.86
70534;SHT31;58088;51.186;17.130;2022-11-13T00:06:51;10.52;76.81
70534;SHT31;58088;51.186;17.130;2022-11-13T00:09:36;10.57;76.86
70534;SHT31;58088;51.186;17.130;2022-11-13T00:12:20;10.61;76.68
70534;SHT31;58088;51.186;17.130;2022-11-13T00:15:05;10.56;76.58
70534;SHT31;58088;51.186;17.130;2022-11-13T00:17:51;10.52;76.57
70534;SHT31;58088;51.186;17.130;2022-11-13T00:20:36;10.49;76.60
70534;SHT31;58088;51.186;17.130;2022-11-13T00:23:21;10.49;76.62
70534;SHT31;58088;51.186;17.130;2022-11-13T00:26:08;10.49;76.68
70534;SHT31;58088;51.186;17.130;2022-11-13T00:29:00;10.50;76.70
70534;SHT31;58088;51.186;17.130;2022-11-13T00:31:46;10.49;76.69
70534;SHT31;58088;51.186;17.130;2022-11-13T00:34:37;10.43;76.71
70534;SHT31;58088;51.186;17.130;2022-11-13T00:37:22;10.40;76.80
70534;SHT31;58088;51.186;17.130;2022-11-13T00:40:07;10.36;76.80
70534;SHT31;58088;51.186;17.130;2022-11-13T00:42:53;10.32;76.87
70534;SHT31;58088;51.186;17.130;2022-11-13T00:45:38;10.30;76.95
70534;SHT31;58088;51.186;17.130;2022-11-13T00:48:23;10.27;77.01
70534;SHT31;58088;51.186;17.130;2022-11-13T00:51:07;10.27;77.06
70534;SHT31;58088;51.186;17.130;2022-11-13T00:53:52;10.26;77.04
70534;SHT31;58088;51.186;17.130;2022-11-13T00:56:37;10.24;77.05
70534;SHT31;58088;51.186;17.130;2022-11-13T00:59:22;10.20;77.02
70534;SHT31;58088;51.186;17.130;2022-11-13T01:02:07;10.18;76.99
70534;SHT31;58088;51.186;17.130;2022-11-13T01:04:53;10.14;76.92
70534;SHT31;58088;51.186;17.130;2022-11-13T01:07:38;10.12;76.88
70534;SHT31;58088;51.186;17.130;2022-11-13T01:10:23;10.11;76.82
70534;SHT31;58088;51.186;17.130;2022-11-13T01:13:07;10.11;76.71
70534;SHT31;58088;51.186;17.130;2022-11-13T01:15:53;10.09;76.60
70534;SHT31;58088;51.186;17.130;2022-11-13T01:18:37;10.07;76.71
70534;SHT31;58088;51.186;17.130;2022-11-13T01:21:25;10.07;76.82
70534;SHT31;58088;51.186;17.130;2022-11-13T01:24:11;10.04;76.98
70534;SHT31;58088;51.186;17.130;2022-11-13T01:26:55;10.02;77.03
70534;SHT31;58088;51.186;17.130;2022-11-13T01:29:40;10.04;77.13
70534;SHT31;58088;51.186;17.130;2022-11-13T01:32:25;10.08;77.16
70534;SHT31;58088;51.186;17.130;2022-11-13T01:35:10;10.16;77.16
70534;SHT31;58088;51.186;17.130;2022-11-13T01:37:55;10.23;77.01
70534;SHT31;58088;51.186;17.130;2022-11-13T01:40:46;10.19;76.91
70534;SHT31;58088;51.186;17.130;2022-11-13T01:43:32;10.13;76.92
70534;SHT31;58088;51.186;17.130;2022-11-13T01:46:23;10.03;77.03
70534;SHT31;58088;51.186;17.130;2022-11-13T01:49:27;9.99;77.11
70534;SHT31;58088;51.186;17.130;2022-11-13T01:52:22;9.96;77.05
70534;SHT31;58088;51.186;17.130;2022-11-13T01:55:16;9.95;77.01
70534;SHT31;58088;51.186;17.130;2022-11-13T01:58:03;9.88;76.88
70534;SHT31;58088;51.186;17.130;2022-11-13T02:00:51;9.86;76.78
70534;SHT31;58088;51.186;17.130;2022-11-13T02:03:55;9.83;76.76
70534;SHT31;58088;51.186;17.130;2022-11-13T02:10:05;9.79;76.89
70534;SHT31;58088;51.186;17.130;2022-11-13T02:12:51;9.76;76.99
70534;SHT31;58088;51.186;17.130;2022-11-13T02:15:35;9.75;77.01
70534;SHT31;58088;51.186;17.130;2022-11-13T02:18:21;9.73;77.05
70534;SHT31;58088;51.186;17.130;2022-11-13T02:24:25;9.69;77.09
70534;SHT31;58088;51.186;17.130;2022-11-13T02:27:23;9.68;77.11
70534;SHT31;58088;51.186;17.130;2022-11-13T02:30:28;9.67;77.10
70534;SHT31;58088;51.186;17.130;2022-11-13T02:33:21;9.69;77.12
70534;SHT31;58088;51.186;17.130;2022-11-13T02:36:15;9.76;77.11
70534;SHT31;58088;51.186;17.130;2022-11-13T02:39:04;9.77;76.96
70534;SHT31;58088;51.186;17.130;2022-11-13T02:41:52;9.72;76.83
70534;SHT31;58088;51.186;17.130;2022-11-13T02:44:37;9.69;76.80
70534;SHT31;58088;51.186;17.130;2022-11-13T02:47:22;9.67;76.80
70534;SHT31;58088;51.186;17.130;2022-11-13T02:50:07;9.67;76.80
70534;SHT31;58088;51.186;17.130;2022-11-13T02:52:53;9.69;76.76
70534;SHT31;58088;51.186;17.130;2022-11-13T02:55:38;9.71;76.70
70534;SHT31;58088;51.186;17.130;2022-11-13T02:58:23;9.75;76.66
70534;SHT31;58088;51.186;17.130;2022-11-13T03:01:07;9.77;76.59
70534;SHT31;58088;51.186;17.130;2022-11-13T03:03:52;9.76;76.50
70534;SHT31;58088;51.186;17.130;2022-11-13T03:06:36;9.77;76.49
70534;SHT31;58088;51.186;17.130;2022-11-13T03:09:21;9.77;76.46
70534;SHT31;58088;51.186;17.130;2022-11-13T03:12:07;9.78;76.43
70534;SHT31;58088;51.186;17.130;2022-11-13T03:15:00;9.77;76.39
70534;SHT31;58088;51.186;17.130;2022-11-13T03:17:45;9.72;76.33
70534;SHT31;58088;51.186;17.130;2022-11-13T03:20:30;9.65;76.38
70534;SHT31;58088;51.186;17.130;2022-11-13T03:23:16;9.63;76.48
70534;SHT31;58088;51.186;17.130;2022-11-13T03:26:02;9.67;76.49
70534;SHT31;58088;51.186;17.130;2022-11-13T03:28:49;9.71;76.42
70534;SHT31;58088;51.186;17.130;2022-11-13T03:31:34;9.73;76.40
70534;SHT31;58088;51.186;17.130;2022-11-13T03:34:19;9.75;76.41
70534;SHT31;58088;51.186;17.130;2022-11-13T03:37:04;9.78;76.46
70534;SHT31;58088;51.186;17.130;2022-11-13T03:39:49;9.80;76.41
70534;SHT31;58088;51.186;17.130;2022-11-13T03:42:34;9.78;76.40
70534;SHT31;58088;51.186;17.130;2022-11-13T03:45:19;9.78;76.40
70534;SHT31;58088;51.186;17.130;2022-11-13T03:48:04;9.80;76.41
70534;SHT31;58088;51.186;17.130;2022-11-13T03:50:51;9.77;76.40
70534;SHT31;58088;51.186;17.130;2022-11-13T03:53:38;9.76;76.41
70534;SHT31;58088;51.186;17.130;2022-11-13T03:56:23;9.77;76.41
70534;SHT31;58088;51.186;17.130;2022-11-13T03:59:08;9.78;76.50
70534;SHT31;58088;51.186;17.130;2022-11-13T04:01:53;9.79;76.50
70534;SHT31;58088;51.186;17.130;2022-11-13T04:04:38;9.78;76.47
70534;SHT31;58088;51.186;17.130;2022-11-13T04:07:27;9.69;76.45
70534;SHT31;58088;51.186;17.130;2022-11-13T04:10:14;9.66;76.55
70534;SHT31;58088;51.186;17.130;2022-11-13T04:12:59;9.67;76.62
70534;SHT31;58088;51.186;17.130;2022-11-13T04:15:46;9.70;76.64
70534;SHT31;58088;51.186;17.130;2022-11-13T04:18:31;9.77;76.66
70534;SHT31;58088;51.186;17.130;2022-11-13T04:21:16;9.82;76.53
70534;SHT31;58088;51.186;17.130;2022-11-13T04:24:01;9.85;76.42
70534;SHT31;58088;51.186;17.130;2022-11-13T04:26:47;9.84;76.40
70534;SHT31;58088;51.186;17.130;2022-11-13T04:29:32;9.80;76.43
70534;SHT31;58088;51.186;17.130;2022-11-13T04:32:16;9.77;76.49
70534;SHT31;58088;51.186;17.130;2022-11-13T04:35:01;9.74;76.47
70534;SHT31;58088;51.186;17.130;2022-11-13T04:37:46;9.70;76.50
70534;SHT31;58088;51.186;17.130;2022-11-13T04:40:31;9.68;76.52
70534;SHT31;58088;51.186;17.130;2022-11-13T04:43:16;9.69;76.57
70534;SHT31;58088;51.186;17.130;2022-11-13T04:46:02;9.72;76.50
70534;SHT31;58088;51.186;17.130;2022-11-13T04:48:51;9.73;76.50
70534;SHT31;58088;51.186;17.130;2022-11-13T04:51:35;9.73;76.52
70534;SHT31;58088;51.186;17.130;2022-11-13T04:54:21;9.72;76.57
70534;SHT31;58088;51.186;17.130;2022-11-13T04:57:06;9.72;76.58
70534;SHT31;58088;51.186;17.130;2022-11-13T04:59:51;9.70;76.59
70534;SHT31;58088;51.186;17.130;2022-11-13T05:02:36;9.75;76.58
70534;SHT31;58088;51.186;17.130;2022-11-13T05:05:21;9.75;76.51
70534;SHT31;58088;51.186;17.130;2022-11-13T05:08:06;9.73;76.49
70534;SHT31;58088;51.186;17.130;2022-11-13T05:10:51;9.71;76.50
70534;SHT31;58088;51.186;17.130;2022-11-13T05:13:36;9.66;76.50
70534;SHT31;58088;51.186;17.130;2022-11-13T05:16:20;9.59;76.57
70534;SHT31;58088;51.186;17.130;2022-11-13T05:19:05;9.54;76.66
70534;SHT31;58088;51.186;17.130;2022-11-13T05:21:50;9.52;76.63
70534;SHT31;58088;51.186;17.130;2022-11-13T05:24:35;9.52;76.69
70534;SHT31;58088;51.186;17.130;2022-11-13T05:27:19;9.51;76.79
70534;SHT31;58088;51.186;17.130;2022-11-13T05:30:04;9.51;76.87
70534;SHT31;58088;51.186;17.130;2022-11-13T05:32:50;9.54;76.91
70534;SHT31;58088;51.186;17.130;2022-11-13T05:35:35;9.54;76.98
70534;SHT31;58088;51.186;17.130;2022-11-13T05:38:20;9.58;77.00
70534;SHT31;58088;51.186;17.130;2022-11-13T05:44:15;9.60;76.81
70534;SHT31;58088;51.186;17.130;2022-11-13T05:47:00;9.65;76.80
70534;SHT31;58088;51.186;17.130;2022-11-13T05:49:45;9.68;76.79
70534;SHT31;58088;51.186;17.130;2022-11-13T05:52:29;9.72;76.76
70534;SHT31;58088;51.186;17.130;2022-11-13T05:55:14;9.78;76.67
70534;SHT31;58088;51.186;17.130;2022-11-13T05:57:58;9.79;76.60
70534;SHT31;58088;51.186;17.130;2022-11-13T06:00:43;9.80;76.60
70534;SHT31;58088;51.186;17.130;2022-11-13T06:03:29;9.81;76.60
70534;SHT31;58088;51.186;17.130;2022-11-13T06:06:15;9.77;76.63
70534;SHT31;58088;51.186;17.130;2022-11-13T06:09:03;9.70;76.73
70534;SHT31;58088;51.186;17.130;2022-11-13T06:11:49;9.66;76.81
70534;SHT31;58088;51.186;17.130;2022-11-13T06:14:35;9.63;76.90
70534;SHT31;58088;51.186;17.130;2022-11-13T06:17:21;9.59;76.95
70534;SHT31;58088;51.186;17.130;2022-11-13T06:20:06;9.59;77.00
70534;SHT31;58088;51.186;17.130;2022-11-13T06:22:51;9.61;77.00
70534;SHT31;58088;51.186;17.130;2022-11-13T06:25:39;9.61;77.00
70534;SHT31;58088;51.186;17.130;2022-11-13T06:28:24;9.63;76.96
70534;SHT31;58088;51.186;17.130;2022-11-13T06:31:13;9.64;76.97
70534;SHT31;58088;51.186;17.130;2022-11-13T06:34:01;9.60;76.98
70534;SHT31;58088;51.186;17.130;2022-11-13T06:36:48;9.57;76.91
70534;SHT31;58088;51.186;17.130;2022-11-13T06:39:33;9.54;76.99
70534;SHT31;58088;51.186;17.130;2022-11-13T06:42:17;9.53;77.05
70534;SHT31;58088;51.186;17.130;2022-11-13T06:45:02;9.52;77.10
70534;SHT31;58088;51.186;17.130;2022-11-13T06:47:48;9.52;77.19
70534;SHT31;58088;51.186;17.130;2022-11-13T06:50:32;9.51;77.28
70534;SHT31;58088;51.186;17.130;2022-11-13T06:53:17;9.48;77.35
70534;SHT31;58088;51.186;17.130;2022-11-13T06:56:03;9.49;77.41
70534;SHT31;58088;51.186;17.130;2022-11-13T06:58:50;9.51;77.49
70534;SHT31;58088;51.186;17.130;2022-11-13T07:01:38;9.49;77.50
70534;SHT31;58088;51.186;17.130;2022-11-13T07:04:23;9.49;77.58
70534;SHT31;58088;51.186;17.130;2022-11-13T07:07:08;9.47;77.62
70534;SHT31;58088;51.186;17.130;2022-11-13T07:09:52;9.45;77.71
70534;SHT31;58088;51.186;17.130;2022-11-13T07:12:37;9.45;77.79
70534;SHT31;58088;51.186;17.130;2022-11-13T07:15:23;9.42;77.90
70534;SHT31;58088;51.186;17.130;2022-11-13T07:18:08;9.43;77.98
70534;SHT31;58088;51.186;17.130;2022-11-13T07:20:52;9.43;78.04
70534;SHT31;58088;51.186;17.130;2022-11-13T07:23:37;9.38;78.04
70534;SHT31;58088;51.186;17.130;2022-11-13T07:26:27;9.36;78.16
70534;SHT31;58088;51.186;17.130;2022-11-13T07:29:16;9.36;78.20
70534;SHT31;58088;51.186;17.130;2022-11-13T07:32:01;9.34;78.21
70534;SHT31;58088;51.186;17.130;2022-11-13T07:34:46;9.33;78.25
70534;SHT31;58088;51.186;17.130;2022-11-13T07:37:33;9.29;78.29
70534;SHT31;58088;51.186;17.130;2022-11-13T07:40:18;9.26;78.24
70534;SHT31;58088;51.186;17.130;2022-11-13T07:43:03;9.24;78.07
70534;SHT31;58088;51.186;17.130;2022-11-13T07:45:49;9.22;78.01
70534;SHT31;58088;51.186;17.130;2022-11-13T07:48:40;9.24;78.00
70534;SHT31;58088;51.186;17.130;2022-11-13T07:51:25;9.23;77.95
70534;SHT31;58088;51.186;17.130;2022-11-13T07:54:10;9.24;77.97
70534;SHT31;58088;51.186;17.130;2022-11-13T07:56:55;9.25;77.93
70534;SHT31;58088;51.186;17.130;2022-11-13T07:59:39;9.29;77.90
70534;SHT31;58088;51.186;17.130;2022-11-13T08:02:24;9.31;77.75
70534;SHT31;58088;51.186;17.130;2022-11-13T08:05:09;9.29;77.64
70534;SHT31;58088;51.186;17.130;2022-11-13T08:07:54;9.32;77.58
70534;SHT31;58088;51.186;17.130;2022-11-13T08:10:39;9.35;77.59
70534;SHT31;58088;51.186;17.130;2022-11-13T08:13:25;9.39;77.48
70534;SHT31;58088;51.186;17.130;2022-11-13T08:16:09;9.39;77.37
70534;SHT31;58088;51.186;17.130;2022-11-13T08:18:54;9.42;77.33
70534;SHT31;58088;51.186;17.130;2022-11-13T08:21:39;9.58;77.67
70534;SHT31;58088;51.186;17.130;2022-11-13T08:24:23;9.73;77.27
70534;SHT31;58088;51.186;17.130;2022-11-13T08:27:08;9.79;77.06
70534;SHT31;58088;51.186;17.130;2022-11-13T08:29:53;9.82;76.86
70534;SHT31;58088;51.186;17.130;2022-11-13T08:32:38;9.83;76.77
70534;SHT31;58088;51.186;17.130;2022-11-13T08:35:23;9.82;76.68
70534;SHT31;58088;51.186;17.130;2022-11-13T08:38:07;9.81;76.59
70534;SHT31;58088;51.186;17.130;2022-11-13T08:40:55;9.83;76.51
70534;SHT31;58088;51.186;17.130;2022-11-13T08:43:44;9.83;76.45
70534;SHT31;58088;51.186;17.130;2022-11-13T08:46:28;9.84;76.43
70534;SHT31;58088;51.186;17.130;2022-11-13T08:49:13;9.86;76.34
70534;SHT31;58088;51.186;17.130;2022-11-13T08:51:58;9.87;76.41
70534;SHT31;58088;51.186;17.130;2022-11-13T08:54:43;9.93;76.39
70534;SHT31;58088;51.186;17.130;2022-11-13T08:57:28;9.98;76.25
70534;SHT31;58088;51.186;17.130;2022-11-13T09:00:13;10.02;76.05
70534;SHT31;58088;51.186;17.130;2022-11-13T09:02:59;10.02;76.00
70534;SHT31;58088;51.186;17.130;2022-11-13T09:05:44;10.03;76.00
70534;SHT31;58088;51.186;17.130;2022-11-13T09:08:29;10.05;76.05
70534;SHT31;58088;51.186;17.130;2022-11-13T09:11:15;10.10;76.03
70534;SHT31;58088;51.186;17.130;2022-11-13T09:14:00;10.11;76.00
70534;SHT31;58088;51.186;17.130;2022-11-13T09:16:45;10.13;76.00
70534;SHT31;58088;51.186;17.130;2022-11-13T09:19:30;10.14;75.95
70534;SHT31;58088;51.186;17.130;2022-11-13T09:22:15;10.08;75.72
70534;SHT31;58088;51.186;17.130;2022-11-13T09:25:00;10.03;75.64
70534;SHT31;58088;51.186;17.130;2022-11-13T09:27:50;10.02;75.75
70534;SHT31;58088;51.186;17.130;2022-11-13T09:30:40;10.05;75.90
70534;SHT31;58088;51.186;17.130;2022-11-13T09:33:25;10.06;75.82
70534;SHT31;58088;51.186;17.130;2022-11-13T09:36:10;10.06;75.65
70534;SHT31;58088;51.186;17.130;2022-11-13T09:38:58;10.04;75.61
70534;SHT31;58088;51.186;17.130;2022-11-13T09:41:53;10.08;75.63
70534;SHT31;58088;51.186;17.130;2022-11-13T09:44:53;10.12;75.55
70534;SHT31;58088;51.186;17.130;2022-11-13T09:47:44;10.15;75.37
70534;SHT31;58088;51.186;17.130;2022-11-13T09:50:32;10.14;75.31
70534;SHT31;58088;51.186;17.130;2022-11-13T09:53:17;10.20;75.33
70534;SHT31;58088;51.186;17.130;2022-11-13T10:02:34;10.31;75.23
70534;SHT31;58088;51.186;17.130;2022-11-13T10:05:39;10.36;75.15
70534;SHT31;58088;51.186;17.130;2022-11-13T10:11:54;10.34;74.87
70534;SHT31;58088;51.186;17.130;2022-11-13T10:14:49;10.28;74.89
70534;SHT31;58088;51.186;17.130;2022-11-13T10:20:38;10.22;75.02
70534;SHT31;58088;51.186;17.130;2022-11-13T10:23:49;10.23;75.02
70534;SHT31;58088;51.186;17.130;2022-11-13T10:26:40;10.22;75.05
70534;SHT31;58088;51.186;17.130;2022-11-13T10:29:25;10.26;75.14
70534;SHT31;58088;51.186;17.130;2022-11-13T10:38:06;10.25;75.02
70534;SHT31;58088;51.186;17.130;2022-11-13T10:41:17;10.23;74.90
70534;SHT31;58088;51.186;17.130;2022-11-13T10:44:05;10.27;74.91
70534;SHT31;58088;51.186;17.130;2022-11-13T10:47:19;10.31;74.83
70534;SHT31;58088;51.186;17.130;2022-11-13T10:50:09;10.33;74.70
70534;SHT31;58088;51.186;17.130;2022-11-13T10:53:16;10.33;74.60
70534;SHT31;58088;51.186;17.130;2022-11-13T10:56:10;10.35;74.68
70534;SHT31;58088;51.186;17.130;2022-11-13T10:59:09;10.35;74.71
70534;SHT31;58088;51.186;17.130;2022-11-13T11:02:07;10.33;74.63
70534;SHT31;58088;51.186;17.130;2022-11-13T11:05:05;10.38;74.73
70534;SHT31;58088;51.186;17.130;2022-11-13T11:08:04;10.45;74.74
70534;SHT31;58088;51.186;17.130;2022-11-13T11:10:57;10.53;74.69
70534;SHT31;58088;51.186;17.130;2022-11-13T11:14:04;10.60;74.59
70534;SHT31;58088;51.186;17.130;2022-11-13T11:16:54;10.64;74.45
70534;SHT31;58088;51.186;17.130;2022-11-13T11:19:41;10.68;74.33
70534;SHT31;58088;51.186;17.130;2022-11-13T11:22:42;10.69;74.26
70534;SHT31;58088;51.186;17.130;2022-11-13T11:28:31;10.71;74.28
70534;SHT31;58088;51.186;17.130;2022-11-13T11:31:41;10.73;74.15
70534;SHT31;58088;51.186;17.130;2022-11-13T11:34:40;10.72;74.10
70534;SHT31;58088;51.186;17.130;2022-11-13T11:37:54;10.69;74.04
70534;SHT31;58088;51.186;17.130;2022-11-13T11:40:51;10.71;74.01
70534;SHT31;58088;51.186;17.130;2022-11-13T11:43:59;10.74;74.00
70534;SHT31;58088;51.186;17.130;2022-11-13T11:47:00;10.75;73.88
70534;SHT31;58088;51.186;17.130;2022-11-13T11:49:44;10.70;73.91
70534;SHT31;58088;51.186;17.130;2022-11-13T11:52:41;10.69;74.17
70534;SHT31;58088;51.186;17.130;2022-11-13T12:08:19;10.74;73.77
70534;SHT31;58088;51.186;17.130;2022-11-13T12:11:36;10.59;74.00
70534;SHT31;58088;51.186;17.130;2022-11-13T12:15:12;10.56;74.28
70534;SHT31;58088;51.186;17.130;2022-11-13T12:22:16;10.42;74.36
70534;SHT31;58088;51.186;17.130;2022-11-13T12:28:20;10.37;74.73
70534;SHT31;58088;51.186;17.130;2022-11-13T12:37:39;10.19;74.96
70534;SHT31;58088;51.186;17.130;2022-11-13T12:40:39;10.19;75.10
70534;SHT31;58088;51.186;17.130;2022-11-13T12:46:39;10.04;75.12
70534;SHT31;58088;51.186;17.130;2022-11-13T12:49:27;9.99;75.20
70534;SHT31;58088;51.186;17.130;2022-11-13T12:52:20;9.97;75.28
70534;SHT31;58088;51.186;17.130;2022-11-13T12:55:22;9.98;75.44
70534;SHT31;58088;51.186;17.130;2022-11-13T12:58:20;9.94;75.45
70534;SHT31;58088;51.186;17.130;2022-11-13T13:04:13;9.94;75.66
70534;SHT31;58088;51.186;17.130;2022-11-13T13:17:24;10.05;75.57
70534;SHT31;58088;51.186;17.130;2022-11-13T13:23:23;10.05;75.56
70534;SHT31;58088;51.186;17.130;2022-11-13T13:26:24;10.06;75.52
70534;SHT31;58088;51.186;17.130;2022-11-13T13:29:15;10.08;75.54
70534;SHT31;58088;51.186;17.130;2022-11-13T13:32:21;10.08;75.53
70534;SHT31;58088;51.186;17.130;2022-11-13T13:38:11;10.01;75.59
70534;SHT31;58088;51.186;17.130;2022-11-13T13:41:21;10.04;75.65
70534;SHT31;58088;51.186;17.130;2022-11-13T13:44:54;10.08;75.60
70534;SHT31;58088;51.186;17.130;2022-11-13T13:48:01;10.11;75.52
70534;SHT31;58088;51.186;17.130;2022-11-13T13:50:55;10.06;75.55
70534;SHT31;58088;51.186;17.130;2022-11-13T13:53:44;10.04;75.51
70534;SHT31;58088;51.186;17.130;2022-11-13T13:56:31;9.99;75.65
70534;SHT31;58088;51.186;17.130;2022-11-13T14:02:20;9.96;75.79
70534;SHT31;58088;51.186;17.130;2022-11-13T14:05:16;9.89;75.84
70534;SHT31;58088;51.186;17.130;2022-11-13T14:08:22;9.87;75.93
70534;SHT31;58088;51.186;17.130;2022-11-13T14:11:20;9.82;75.97
70534;SHT31;58088;51.186;17.130;2022-11-13T14:14:16;9.80;76.03
70534;SHT31;58088;51.186;17.130;2022-11-13T14:17:05;9.74;75.93
70534;SHT31;58088;51.186;17.130;2022-11-13T14:19:54;9.68;76.01
70534;SHT31;58088;51.186;17.130;2022-11-13T14:22:44;9.67;76.04
70534;SHT31;58088;51.186;17.130;2022-11-13T14:25:32;9.68;76.12
70534;SHT31;58088;51.186;17.130;2022-11-13T14:28:18;9.69;76.05
70534;SHT31;58088;51.186;17.130;2022-11-13T14:31:08;9.60;76.08
70534;SHT31;58088;51.186;17.130;2022-11-13T14:34:15;9.59;76.20
70534;SHT31;58088;51.186;17.130;2022-11-13T14:40:26;9.53;76.36
70534;SHT31;58088;51.186;17.130;2022-11-13T14:43:26;9.51;76.40
70534;SHT31;58088;51.186;17.130;2022-11-13T14:46:35;9.51;76.42
70534;SHT31;58088;51.186;17.130;2022-11-13T14:49:32;9.49;76.49
70534;SHT31;58088;51.186;17.130;2022-11-13T14:52:31;9.49;76.50
70534;SHT31;58088;51.186;17.130;2022-11-13T14:55:23;9.50;76.47
70534;SHT31;58088;51.186;17.130;2022-11-13T14:58:14;9.50;76.50
70534;SHT31;58088;51.186;17.130;2022-11-13T15:01:23;9.46;76.47
70534;SHT31;58088;51.186;17.130;2022-11-13T15:04:11;9.39;76.50
70534;SHT31;58088;51.186;17.130;2022-11-13T15:07:00;9.29;76.64
70534;SHT31;58088;51.186;17.130;2022-11-13T15:09:47;9.26;76.71
70534;SHT31;58088;51.186;17.130;2022-11-13T15:12:34;9.25;76.79
70534;SHT31;58088;51.186;17.130;2022-11-13T15:15:25;9.20;76.80
70534;SHT31;58088;51.186;17.130;2022-11-13T15:18:17;9.15;76.93
70534;SHT31;58088;51.186;17.130;2022-11-13T15:21:06;9.12;76.98
70534;SHT31;58088;51.186;17.130;2022-11-13T15:23:55;9.06;77.00
70534;SHT31;58088;51.186;17.130;2022-11-13T15:26:41;9.02;77.19
70534;SHT31;58088;51.186;17.130;2022-11-13T15:29:30;9.01;77.22
70534;SHT31;58088;51.186;17.130;2022-11-13T15:32:15;9.00;77.30
70534;SHT31;58088;51.186;17.130;2022-11-13T15:35:00;9.08;77.27
70534;SHT31;58088;51.186;17.130;2022-11-13T15:37:48;9.07;77.21
70534;SHT31;58088;51.186;17.130;2022-11-13T15:40:34;9.07;77.12
70534;SHT31;58088;51.186;17.130;2022-11-13T15:43:22;9.07;77.07
70534;SHT31;58088;51.186;17.130;2022-11-13T15:46:10;9.09;77.00
70534;SHT31;58088;51.186;17.130;2022-11-13T15:49:11;9.09;76.90
70534;SHT31;58088;51.186;17.130;2022-11-13T15:51:57;9.09;76.85
70534;SHT31;58088;51.186;17.130;2022-11-13T15:54:49;9.03;76.96
70534;SHT31;58088;51.186;17.130;2022-11-13T15:57:34;8.95;77.03
70534;SHT31;58088;51.186;17.130;2022-11-13T16:00:21;8.89;77.15
70534;SHT31;58088;51.186;17.130;2022-11-13T16:03:12;8.84;77.25
70534;SHT31;58088;51.186;17.130;2022-11-13T16:05:59;8.77;77.43
70534;SHT31;58088;51.186;17.130;2022-11-13T16:08:45;8.74;77.50
70534;SHT31;58088;51.186;17.130;2022-11-13T16:11:39;8.72;77.50
70534;SHT31;58088;51.186;17.130;2022-11-13T16:14:27;8.73;77.50
70534;SHT31;58088;51.186;17.130;2022-11-13T16:17:13;8.69;77.51
70534;SHT31;58088;51.186;17.130;2022-11-13T16:20:05;8.68;77.60
70534;SHT31;58088;51.186;17.130;2022-11-13T16:22:55;8.68;77.65
70534;SHT31;58088;51.186;17.130;2022-11-13T16:25:40;8.66;77.66
70534;SHT31;58088;51.186;17.130;2022-11-13T16:28:25;8.67;77.70
70534;SHT31;58088;51.186;17.130;2022-11-13T16:31:10;8.68;77.62
70534;SHT31;58088;51.186;17.130;2022-11-13T16:33:55;8.65;77.55
70534;SHT31;58088;51.186;17.130;2022-11-13T16:36:40;8.62;77.56
70534;SHT31;58088;51.186;17.130;2022-11-13T16:39:25;8.66;78.14
70534;SHT31;58088;51.186;17.130;2022-11-13T16:42:11;8.67;77.93
70534;SHT31;58088;51.186;17.130;2022-11-13T16:44:57;8.67;77.75
70534;SHT31;58088;51.186;17.130;2022-11-13T16:47:43;8.64;77.69
70534;SHT31;58088;51.186;17.130;2022-11-13T16:50:29;8.60;77.62
70534;SHT31;58088;51.186;17.130;2022-11-13T16:53:17;8.58;77.63
70534;SHT31;58088;51.186;17.130;2022-11-13T16:56:04;8.54;77.66
70534;SHT31;58088;51.186;17.130;2022-11-13T16:59:12;8.50;77.72
70534;SHT31;58088;51.186;17.130;2022-11-13T17:01:57;8.41;77.82
70534;SHT31;58088;51.186;17.130;2022-11-13T17:04:42;8.37;77.91
70534;SHT31;58088;51.186;17.130;2022-11-13T17:07:28;8.33;78.04
70534;SHT31;58088;51.186;17.130;2022-11-13T17:10:14;8.30;78.15
70534;SHT31;58088;51.186;17.130;2022-11-13T17:13:03;8.23;78.20
70534;SHT31;58088;51.186;17.130;2022-11-13T17:15:48;8.21;78.20
70534;SHT31;58088;51.186;17.130;2022-11-13T17:18:33;8.20;78.11
70534;SHT31;58088;51.186;17.130;2022-11-13T17:21:19;8.18;78.09
70534;SHT31;58088;51.186;17.130;2022-11-13T17:24:07;8.16;78.10
70534;SHT31;58088;51.186;17.130;2022-11-13T17:26:52;8.15;78.12
70534;SHT31;58088;51.186;17.130;2022-11-13T17:29:37;8.16;78.12
70534;SHT31;58088;51.186;17.130;2022-11-13T17:32:22;8.17;78.10
70534;SHT31;58088;51.186;17.130;2022-11-13T17:35:07;8.16;78.10
70534;SHT31;58088;51.186;17.130;2022-11-13T17:37:58;8.13;78.10
70534;SHT31;58088;51.186;17.130;2022-11-13T17:40:43;8.10;78.10
70534;SHT31;58088;51.186;17.130;2022-11-13T17:43:28;8.04;78.16
70534;SHT31;58088;51.186;17.130;2022-11-13T17:46:13;8.02;78.20
70534;SHT31;58088;51.186;17.130;2022-11-13T17:49:00;7.98;78.02
70534;SHT31;58088;51.186;17.130;2022-11-13T17:51:45;7.89;77.92
70534;SHT31;58088;51.186;17.130;2022-11-13T17:54:29;7.84;78.06
70534;SHT31;58088;51.186;17.130;2022-11-13T17:57:14;7.85;78.16
70534;SHT31;58088;51.186;17.130;2022-11-13T17:59:59;7.86;78.20
70534;SHT31;58088;51.186;17.130;2022-11-13T18:02:44;7.88;78.20
70534;SHT31;58088;51.186;17.130;2022-11-13T18:05:29;7.91;78.19
70534;SHT31;58088;51.186;17.130;2022-11-13T18:08:14;7.93;78.18
70534;SHT31;58088;51.186;17.130;2022-11-13T18:11:04;7.90;78.13
70534;SHT31;58088;51.186;17.130;2022-11-13T18:14:03;7.87;78.16
70534;SHT31;58088;51.186;17.130;2022-11-13T18:16:48;7.85;78.09
70534;SHT31;58088;51.186;17.130;2022-11-13T18:19:34;7.80;78.04
70534;SHT31;58088;51.186;17.130;2022-11-13T18:22:19;7.73;78.14
70534;SHT31;58088;51.186;17.130;2022-11-13T18:25:05;7.74;78.20
70534;SHT31;58088;51.186;17.130;2022-11-13T18:27:50;7.74;78.25
70534;SHT31;58088;51.186;17.130;2022-11-13T18:30:36;7.74;78.00
70534;SHT31;58088;51.186;17.130;2022-11-13T18:33:22;7.71;77.65
70534;SHT31;58088;51.186;17.130;2022-11-13T18:36:07;7.63;77.64
70534;SHT31;58088;51.186;17.130;2022-11-13T18:38:52;7.58;77.64
70534;SHT31;58088;51.186;17.130;2022-11-13T18:41:38;7.52;77.44
70534;SHT31;58088;51.186;17.130;2022-11-13T18:44:24;7.43;77.40
70534;SHT31;58088;51.186;17.130;2022-11-13T18:47:09;7.36;77.46
70534;SHT31;58088;51.186;17.130;2022-11-13T18:49:54;7.29;77.64
70534;SHT31;58088;51.186;17.130;2022-11-13T18:52:39;7.26;77.59
70534;SHT31;58088;51.186;17.130;2022-11-13T18:55:23;7.21;77.50
70534;SHT31;58088;51.186;17.130;2022-11-13T18:58:08;7.19;77.72
70534;SHT31;58088;51.186;17.130;2022-11-13T19:00:53;7.17;77.82
70534;SHT31;58088;51.186;17.130;2022-11-13T19:03:39;7.17;77.89
70534;SHT31;58088;51.186;17.130;2022-11-13T19:06:25;7.17;78.06
70534;SHT31;58088;51.186;17.130;2022-11-13T19:09:11;7.19;78.26